Disclaimer

Please do not use the information listed here in-flight or in-navigation, as they are not provided to us by the airports but are provided by volunteers, so they might be outdated.

Search


Regions


Airport information page

Radio informations:
POZNAN TWR - 118.225 MHz

Airport informations:
Latitude: 52° 25' 15.71" N
Longitude: 016° 49' 34.77" E
Elevation: 308 feet - 94 meters
Operating hours: 24 hour operations
Operating agency: Civil government, landing fees and diplomatic clearance may be required
Timezone: UTC+1(+2DT) - Last Sunday in March to last Sunday in October
Fuel: Jet A1+, Jet A1 with icing inhibitor.

Runway information:
11/29 - 8215 x 164 feet< - >2504 x 50 meters

Recent METARs:
EPPO 210700Z 09012KT 9999 OVC014 M00/M03 Q1023
EPPO 210730Z 10013KT 9999 OVC014 M00/M03 Q1023
EPPO 210800Z 09011KT 9999 OVC014 M00/M03 Q1023

Airport on the map: